Charlotte, NC (28226)

11:01 PM EDT on March 29, 2015 (GMT -0400)
SoCltColRea | | Change Station
CLOSE
Current Station
Personal Weather Station
Location: Charlotte, NC
Elevation: 591 ft
Nearby Weather Stations

Elev 591 ft 35.11 °N, 80.80 °W | Updated 9 minutes ago

Clear
Clear
42.8 °F
Feels Like 43 °F
N
0.0
Wind Variable Wind from SW

Today
High -- | Low -- °F
--% Chance of Precip.
Yesterday
High -- | Low -- °F
Precip. -- in
7:14 AM 7:42 PM
Waxing Gibbous, 76% visible
Pressure 30.26 in
Visibility 10.0 miles
Clouds Few 25000 ft
Windchill 43 °F
Dew Point 20 °F
Humidity 40%
Rainfall 0.00 in
Snow Depth Not available.
UV 0 out of 12
Pollen 8.10 out of 12
Air Quality Not available.
Flu Activity Not available.
METAR KCLT 300152Z 19008KT 10SM FEW250 07/M09 A3026 RMK AO2 SLP247 T00721089 $

More Conditions Fewer Conditions

Pressure 30.26 in
Visibility 10.0 miles
Clouds Few 25000 ft
Windchill 43 °F
Dew Point 20 °F
Humidity 40%
Rainfall 0.00 in
Snow Depth Not available.
UV 0 out of 12
Pollen 8.10 out of 12
Air Quality Not available.
Flu Activity Not available.
METAR KCLT 300152Z 19008KT 10SM FEW250 07/M09 A3026 RMK AO2 SLP247 T00721089 $

More Conditions Fewer Conditions

10-Day Weather Forecast

Almanac

Astronomy

Mar. 29, 2015 Rise Set
Actual Time
Civil Twilight
Nautical Twilight
Astronomical Twilight
Moon
Length of Visible Light
Length of Day
Tomorrow will be .
, % of the Moon is Illuminated

Today's Extremes

State Highs State Lows

Community

WunderPhotos

Upload Photos

1,809,417 photos uploaded!

WunderBlogs® & News

Nearby

Air Quality

  Air Quality AQ Index Pollutant
Not available.

Snow Depth

Station Depth Elevation

Earthquake Activity

City Distance Mag. Time & Date
Minimum magnitude displayed is 2.5.

Coastal Water Temperatures

Place Temperature

Stations

Nearby Weather Stations

Station Location Temp. Windchill Dew Point Humidity Wind Precip. Elev Updated Type